sensor_id;sensor_type;location;lat;lon;timestamp;P1;durP1;ratioP1;P2;durP2;ratioP2
8279;SDS011;8335;42.646;23.380;2022-09-17T00:02:12;13.32;;;6.95;;
8279;SDS011;8335;42.646;23.380;2022-09-17T00:04:39;12.13;;;6.90;;
8279;SDS011;8335;42.646;23.380;2022-09-17T00:07:05;12.50;;;6.53;;
8279;SDS011;8335;42.646;23.380;2022-09-17T00:09:32;12.32;;;6.97;;
8279;SDS011;8335;42.646;23.380;2022-09-17T00:11:59;14.30;;;7.13;;
8279;SDS011;8335;42.646;23.380;2022-09-17T00:14:26;11.43;;;6.53;;
8279;SDS011;8335;42.646;23.380;2022-09-17T00:16:53;15.38;;;6.35;;
8279;SDS011;8335;42.646;23.380;2022-09-17T00:19:21;10.15;;;6.60;;
8279;SDS011;8335;42.646;23.380;2022-09-17T00:21:49;12.05;;;6.45;;
8279;SDS011;8335;42.646;23.380;2022-09-17T00:24:17;11.57;;;6.60;;
8279;SDS011;8335;42.646;23.380;2022-09-17T00:26:45;9.77;;;5.90;;
8279;SDS011;8335;42.646;23.380;2022-09-17T00:29:12;12.70;;;5.57;;
8279;SDS011;8335;42.646;23.380;2022-09-17T00:31:39;10.77;;;6.75;;
8279;SDS011;8335;42.646;23.380;2022-09-17T00:34:06;13.63;;;6.13;;
8279;SDS011;8335;42.646;23.380;2022-09-17T00:36:35;13.32;;;5.65;;
8279;SDS011;8335;42.646;23.380;2022-09-17T00:39:03;12.10;;;5.90;;
8279;SDS011;8335;42.646;23.380;2022-09-17T00:41:31;11.10;;;6.07;;
8279;SDS011;8335;42.646;23.380;2022-09-17T00:44:01;10.63;;;5.05;;
8279;SDS011;8335;42.646;23.380;2022-09-17T00:46:48;8.77;;;5.93;;
8279;SDS011;8335;42.646;23.380;2022-09-17T00:49:16;9.68;;;5.53;;
8279;SDS011;8335;42.646;23.380;2022-09-17T00:51:48;11.02;;;5.60;;
8279;SDS011;8335;42.646;23.380;2022-09-17T00:54:21;12.57;;;6.10;;
8279;SDS011;8335;42.646;23.380;2022-09-17T00:56:50;10.48;;;5.22;;
8279;SDS011;8335;42.646;23.380;2022-09-17T00:59:17;13.68;;;6.10;;
8279;SDS011;8335;42.646;23.380;2022-09-17T01:01:46;12.52;;;7.05;;
8279;SDS011;8335;42.646;23.380;2022-09-17T01:04:17;13.43;;;6.47;;
8279;SDS011;8335;42.646;23.380;2022-09-17T01:06:46;14.15;;;5.70;;
8279;SDS011;8335;42.646;23.380;2022-09-17T01:09:24;12.43;;;6.80;;
8279;SDS011;8335;42.646;23.380;2022-09-17T01:12:26;16.90;;;7.10;;
8279;SDS011;8335;42.646;23.380;2022-09-17T01:15:10;14.13;;;6.97;;
8279;SDS011;8335;42.646;23.380;2022-09-17T01:17:46;11.03;;;6.70;;
8279;SDS011;8335;42.646;23.380;2022-09-17T01:23:49;12.63;;;6.85;;
8279;SDS011;8335;42.646;23.380;2022-09-17T01:26:49;10.55;;;6.75;;
8279;SDS011;8335;42.646;23.380;2022-09-17T01:29:33;13.43;;;7.25;;
8279;SDS011;8335;42.646;23.380;2022-09-17T01:32:15;10.50;;;6.60;;
8279;SDS011;8335;42.646;23.380;2022-09-17T01:34:51;12.35;;;6.28;;
8279;SDS011;8335;42.646;23.380;2022-09-17T01:37:28;13.60;;;6.68;;
8279;SDS011;8335;42.646;23.380;2022-09-17T01:39:59;10.85;;;6.47;;
8279;SDS011;8335;42.646;23.380;2022-09-17T01:42:34;10.77;;;6.10;;
8279;SDS011;8335;42.646;23.380;2022-09-17T01:45:08;12.48;;;6.30;;
8279;SDS011;8335;42.646;23.380;2022-09-17T01:47:43;14.23;;;6.20;;
8279;SDS011;8335;42.646;23.380;2022-09-17T01:50:13;9.75;;;6.63;;
8279;SDS011;8335;42.646;23.380;2022-09-17T01:52:45;13.25;;;6.25;;
8279;SDS011;8335;42.646;23.380;2022-09-17T01:55:16;13.00;;;6.20;;
8279;SDS011;8335;42.646;23.380;2022-09-17T01:57:48;15.30;;;6.03;;
8279;SDS011;8335;42.646;23.380;2022-09-17T02:00:20;18.20;;;5.80;;
8279;SDS011;8335;42.646;23.380;2022-09-17T02:02:49;13.00;;;5.77;;
8279;SDS011;8335;42.646;23.380;2022-09-17T02:05:20;13.98;;;5.30;;
8279;SDS011;8335;42.646;23.380;2022-09-17T02:07:54;13.17;;;5.67;;
8279;SDS011;8335;42.646;23.380;2022-09-17T02:10:24;9.93;;;6.10;;
8279;SDS011;8335;42.646;23.380;2022-09-17T02:12:55;16.83;;;7.03;;
8279;SDS011;8335;42.646;23.380;2022-09-17T02:15:27;10.97;;;6.27;;
8279;SDS011;8335;42.646;23.380;2022-09-17T02:17:59;12.67;;;6.07;;
8279;SDS011;8335;42.646;23.380;2022-09-17T02:20:34;13.70;;;7.03;;
8279;SDS011;8335;42.646;23.380;2022-09-17T02:23:07;9.63;;;6.03;;
8279;SDS011;8335;42.646;23.380;2022-09-17T02:25:41;10.97;;;6.40;;
8279;SDS011;8335;42.646;23.380;2022-09-17T02:28:14;10.27;;;6.40;;
8279;SDS011;8335;42.646;23.380;2022-09-17T02:30:45;17.03;;;7.67;;
8279;SDS011;8335;42.646;23.380;2022-09-17T02:33:13;10.00;;;6.90;;
8279;SDS011;8335;42.646;23.380;2022-09-17T02:35:40;10.33;;;5.47;;
8279;SDS011;8335;42.646;23.380;2022-09-17T02:38:07;10.97;;;6.90;;
8279;SDS011;8335;42.646;23.380;2022-09-17T02:40:36;11.60;;;7.00;;
8279;SDS011;8335;42.646;23.380;2022-09-17T02:43:12;11.23;;;6.40;;
8279;SDS011;8335;42.646;23.380;2022-09-17T02:45:51;13.67;;;6.20;;
8279;SDS011;8335;42.646;23.380;2022-09-17T02:48:35;12.83;;;6.30;;
8279;SDS011;8335;42.646;23.380;2022-09-17T02:51:19;13.90;;;6.63;;
8279;SDS011;8335;42.646;23.380;2022-09-17T02:53:55;9.50;;;4.53;;
8279;SDS011;8335;42.646;23.380;2022-09-17T02:56:28;10.30;;;4.72;;
8279;SDS011;8335;42.646;23.380;2022-09-17T02:59:05;8.88;;;4.60;;
8279;SDS011;8335;42.646;23.380;2022-09-17T03:01:41;11.45;;;4.70;;
8279;SDS011;8335;42.646;23.380;2022-09-17T03:04:12;7.05;;;3.92;;
8279;SDS011;8335;42.646;23.380;2022-09-17T03:06:42;6.93;;;4.18;;
8279;SDS011;8335;42.646;23.380;2022-09-17T03:09:11;9.25;;;4.70;;
8279;SDS011;8335;42.646;23.380;2022-09-17T03:11:38;12.13;;;4.32;;
8279;SDS011;8335;42.646;23.380;2022-09-17T03:14:05;9.23;;;4.05;;
8279;SDS011;8335;42.646;23.380;2022-09-17T03:16:32;6.53;;;4.82;;
8279;SDS011;8335;42.646;23.380;2022-09-17T03:18:59;10.80;;;4.97;;
8279;SDS011;8335;42.646;23.380;2022-09-17T03:21:27;10.52;;;4.57;;
8279;SDS011;8335;42.646;23.380;2022-09-17T03:23:55;6.80;;;3.95;;
8279;SDS011;8335;42.646;23.380;2022-09-17T03:26:24;7.82;;;4.60;;
8279;SDS011;8335;42.646;23.380;2022-09-17T03:28:51;6.15;;;4.53;;
8279;SDS011;8335;42.646;23.380;2022-09-17T03:31:18;7.13;;;4.03;;
8279;SDS011;8335;42.646;23.380;2022-09-17T03:33:45;10.40;;;4.00;;
8279;SDS011;8335;42.646;23.380;2022-09-17T03:36:12;8.98;;;3.70;;
8279;SDS011;8335;42.646;23.380;2022-09-17T03:38:40;9.05;;;3.63;;
8279;SDS011;8335;42.646;23.380;2022-09-17T03:41:07;5.45;;;3.70;;
8279;SDS011;8335;42.646;23.380;2022-09-17T03:43:34;8.85;;;4.70;;
8279;SDS011;8335;42.646;23.380;2022-09-17T03:46:00;7.47;;;3.50;;
8279;SDS011;8335;42.646;23.380;2022-09-17T03:48:27;5.15;;;3.67;;
8279;SDS011;8335;42.646;23.380;2022-09-17T03:50:54;9.38;;;3.88;;
8279;SDS011;8335;42.646;23.380;2022-09-17T03:53:22;14.00;;;4.22;;
8279;SDS011;8335;42.646;23.380;2022-09-17T03:55:50;8.63;;;4.38;;
8279;SDS011;8335;42.646;23.380;2022-09-17T03:58:17;10.02;;;4.00;;
8279;SDS011;8335;42.646;23.380;2022-09-17T04:00:44;10.93;;;4.68;;
8279;SDS011;8335;42.646;23.380;2022-09-17T04:03:17;10.10;;;4.32;;
8279;SDS011;8335;42.646;23.380;2022-09-17T04:05:44;9.05;;;4.85;;
8279;SDS011;8335;42.646;23.380;2022-09-17T04:08:10;8.82;;;4.60;;
8279;SDS011;8335;42.646;23.380;2022-09-17T04:10:37;8.65;;;4.00;;
8279;SDS011;8335;42.646;23.380;2022-09-17T04:13:05;10.93;;;4.82;;
8279;SDS011;8335;42.646;23.380;2022-09-17T04:15:32;8.45;;;3.35;;
8279;SDS011;8335;42.646;23.380;2022-09-17T04:17:59;5.47;;;3.08;;
8279;SDS011;8335;42.646;23.380;2022-09-17T04:20:26;11.05;;;4.55;;
8279;SDS011;8335;42.646;23.380;2022-09-17T04:22:53;8.73;;;3.30;;
8279;SDS011;8335;42.646;23.380;2022-09-17T04:25:20;10.00;;;3.88;;
8279;SDS011;8335;42.646;23.380;2022-09-17T04:27:46;11.07;;;3.83;;
8279;SDS011;8335;42.646;23.380;2022-09-17T04:30:15;7.63;;;4.45;;
8279;SDS011;8335;42.646;23.380;2022-09-17T04:32:42;9.85;;;4.20;;
8279;SDS011;8335;42.646;23.380;2022-09-17T04:35:10;10.57;;;4.03;;
8279;SDS011;8335;42.646;23.380;2022-09-17T04:37:37;8.77;;;4.32;;
8279;SDS011;8335;42.646;23.380;2022-09-17T04:40:04;8.35;;;4.55;;
8279;SDS011;8335;42.646;23.380;2022-09-17T04:42:32;6.63;;;4.05;;
8279;SDS011;8335;42.646;23.380;2022-09-17T04:44:59;13.45;;;4.22;;
8279;SDS011;8335;42.646;23.380;2022-09-17T04:47:27;11.20;;;4.45;;
8279;SDS011;8335;42.646;23.380;2022-09-17T04:49:54;11.18;;;5.32;;
8279;SDS011;8335;42.646;23.380;2022-09-17T04:52:20;9.93;;;4.35;;
8279;SDS011;8335;42.646;23.380;2022-09-17T04:54:47;11.88;;;5.30;;
8279;SDS011;8335;42.646;23.380;2022-09-17T04:57:14;12.63;;;4.57;;
8279;SDS011;8335;42.646;23.380;2022-09-17T04:59:41;12.65;;;5.35;;
8279;SDS011;8335;42.646;23.380;2022-09-17T05:02:07;11.57;;;5.32;;
8279;SDS011;8335;42.646;23.380;2022-09-17T05:04:35;9.75;;;5.15;;
8279;SDS011;8335;42.646;23.380;2022-09-17T05:07:02;7.50;;;5.20;;
8279;SDS011;8335;42.646;23.380;2022-09-17T05:09:29;11.88;;;5.60;;
8279;SDS011;8335;42.646;23.380;2022-09-17T05:11:56;13.32;;;5.95;;
8279;SDS011;8335;42.646;23.380;2022-09-17T05:14:22;11.07;;;6.45;;
8279;SDS011;8335;42.646;23.380;2022-09-17T05:16:49;12.45;;;6.03;;
8279;SDS011;8335;42.646;23.380;2022-09-17T05:19:16;14.25;;;6.05;;
8279;SDS011;8335;42.646;23.380;2022-09-17T05:21:44;12.65;;;6.47;;
8279;SDS011;8335;42.646;23.380;2022-09-17T05:24:11;16.52;;;7.05;;
8279;SDS011;8335;42.646;23.380;2022-09-17T05:26:37;16.33;;;7.32;;
8279;SDS011;8335;42.646;23.380;2022-09-17T05:29:04;17.20;;;8.07;;
8279;SDS011;8335;42.646;23.380;2022-09-17T05:31:31;12.63;;;6.80;;
8279;SDS011;8335;42.646;23.380;2022-09-17T05:33:58;11.82;;;6.25;;
8279;SDS011;8335;42.646;23.380;2022-09-17T05:36:25;13.68;;;6.20;;
8279;SDS011;8335;42.646;23.380;2022-09-17T05:38:53;11.82;;;6.57;;
8279;SDS011;8335;42.646;23.380;2022-09-17T05:41:20;15.15;;;6.10;;
8279;SDS011;8335;42.646;23.380;2022-09-17T05:43:46;15.43;;;5.63;;
8279;SDS011;8335;42.646;23.380;2022-09-17T05:46:13;12.73;;;6.07;;
8279;SDS011;8335;42.646;23.380;2022-09-17T05:48:40;12.88;;;5.90;;
8279;SDS011;8335;42.646;23.380;2022-09-17T05:51:07;10.85;;;5.63;;
8279;SDS011;8335;42.646;23.380;2022-09-17T05:53:34;12.05;;;6.07;;
8279;SDS011;8335;42.646;23.380;2022-09-17T05:56:03;8.18;;;5.53;;
8279;SDS011;8335;42.646;23.380;2022-09-17T05:58:30;11.25;;;5.45;;
8279;SDS011;8335;42.646;23.380;2022-09-17T06:00:59;12.73;;;5.70;;
8279;SDS011;8335;42.646;23.380;2022-09-17T06:03:26;13.80;;;6.07;;
8279;SDS011;8335;42.646;23.380;2022-09-17T06:05:53;10.13;;;5.75;;
8279;SDS011;8335;42.646;23.380;2022-09-17T06:08:22;9.73;;;5.13;;
8279;SDS011;8335;42.646;23.380;2022-09-17T06:10:49;12.02;;;4.88;;
8279;SDS011;8335;42.646;23.380;2022-09-17T06:13:18;9.93;;;5.20;;
8279;SDS011;8335;42.646;23.380;2022-09-17T06:15:48;13.70;;;5.43;;
8279;SDS011;8335;42.646;23.380;2022-09-17T06:18:16;13.77;;;5.18;;
8279;SDS011;8335;42.646;23.380;2022-09-17T06:20:43;14.38;;;6.00;;
8279;SDS011;8335;42.646;23.380;2022-09-17T06:23:18;15.23;;;5.30;;
8279;SDS011;8335;42.646;23.380;2022-09-17T06:25:48;13.95;;;5.53;;
8279;SDS011;8335;42.646;23.380;2022-09-17T06:28:18;12.48;;;5.35;;
8279;SDS011;8335;42.646;23.380;2022-09-17T06:30:46;14.68;;;6.50;;
8279;SDS011;8335;42.646;23.380;2022-09-17T06:33:13;18.02;;;6.70;;
8279;SDS011;8335;42.646;23.380;2022-09-17T06:35:40;13.52;;;7.32;;
8279;SDS011;8335;42.646;23.380;2022-09-17T06:38:07;14.88;;;6.78;;
8279;SDS011;8335;42.646;23.380;2022-09-17T06:40:34;13.18;;;6.60;;
8279;SDS011;8335;42.646;23.380;2022-09-17T06:43:01;12.85;;;6.50;;
8279;SDS011;8335;42.646;23.380;2022-09-17T06:45:29;15.25;;;6.40;;
8279;SDS011;8335;42.646;23.380;2022-09-17T06:47:56;12.15;;;6.22;;
8279;SDS011;8335;42.646;23.380;2022-09-17T06:50:22;12.07;;;6.20;;
8279;SDS011;8335;42.646;23.380;2022-09-17T06:52:49;14.25;;;5.95;;
8279;SDS011;8335;42.646;23.380;2022-09-17T06:55:17;15.98;;;5.80;;
8279;SDS011;8335;42.646;23.380;2022-09-17T06:57:44;12.65;;;5.90;;
8279;SDS011;8335;42.646;23.380;2022-09-17T07:00:11;14.90;;;6.45;;
8279;SDS011;8335;42.646;23.380;2022-09-17T07:02:40;16.15;;;6.43;;
8279;SDS011;8335;42.646;23.380;2022-09-17T07:05:07;16.70;;;6.57;;
8279;SDS011;8335;42.646;23.380;2022-09-17T07:07:34;19.67;;;7.50;;
8279;SDS011;8335;42.646;23.380;2022-09-17T07:10:03;13.60;;;6.28;;
8279;SDS011;8335;42.646;23.380;2022-09-17T07:12:30;12.43;;;6.35;;
8279;SDS011;8335;42.646;23.380;2022-09-17T07:14:57;11.88;;;5.97;;
8279;SDS011;8335;42.646;23.380;2022-09-17T07:17:24;13.48;;;7.75;;
8279;SDS011;8335;42.646;23.380;2022-09-17T07:19:55;20.83;;;11.40;;
8279;SDS011;8335;42.646;23.380;2022-09-17T07:22:22;14.73;;;6.70;;
8279;SDS011;8335;42.646;23.380;2022-09-17T07:24:49;11.95;;;5.82;;
8279;SDS011;8335;42.646;23.380;2022-09-17T07:27:16;7.18;;;3.80;;
8279;SDS011;8335;42.646;23.380;2022-09-17T07:29:43;11.15;;;3.80;;
8279;SDS011;8335;42.646;23.380;2022-09-17T07:32:09;15.20;;;4.78;;
8279;SDS011;8335;42.646;23.380;2022-09-17T07:34:36;10.82;;;5.00;;
8279;SDS011;8335;42.646;23.380;2022-09-17T07:37:05;9.10;;;5.05;;
8279;SDS011;8335;42.646;23.380;2022-09-17T07:39:31;10.05;;;4.85;;
8279;SDS011;8335;42.646;23.380;2022-09-17T07:41:58;14.88;;;4.88;;
8279;SDS011;8335;42.646;23.380;2022-09-17T07:44:25;11.93;;;4.45;;
8279;SDS011;8335;42.646;23.380;2022-09-17T07:46:52;8.77;;;4.13;;
8279;SDS011;8335;42.646;23.380;2022-09-17T07:49:19;11.30;;;3.70;;
8279;SDS011;8335;42.646;23.380;2022-09-17T07:51:46;6.53;;;3.50;;
8279;SDS011;8335;42.646;23.380;2022-09-17T07:54:14;9.20;;;3.40;;
8279;SDS011;8335;42.646;23.380;2022-09-17T07:56:41;10.70;;;3.63;;
8279;SDS011;8335;42.646;23.380;2022-09-17T07:59:09;8.68;;;2.92;;
8279;SDS011;8335;42.646;23.380;2022-09-17T08:01:35;8.45;;;3.75;;
8279;SDS011;8335;42.646;23.380;2022-09-17T08:04:02;13.75;;;3.58;;
8279;SDS011;8335;42.646;23.380;2022-09-17T08:06:30;7.50;;;3.08;;
8279;SDS011;8335;42.646;23.380;2022-09-17T08:08:57;6.63;;;2.90;;
8279;SDS011;8335;42.646;23.380;2022-09-17T08:11:27;8.50;;;3.15;;
8279;SDS011;8335;42.646;23.380;2022-09-17T08:13:55;13.27;;;3.10;;
8279;SDS011;8335;42.646;23.380;2022-09-17T08:16:22;11.32;;;3.28;;
8279;SDS011;8335;42.646;23.380;2022-09-17T08:18:52;6.85;;;2.72;;
8279;SDS011;8335;42.646;23.380;2022-09-17T08:21:21;10.30;;;2.97;;
8279;SDS011;8335;42.646;23.380;2022-09-17T08:23:48;4.55;;;2.85;;
8279;SDS011;8335;42.646;23.380;2022-09-17T08:26:15;7.32;;;2.45;;
8279;SDS011;8335;42.646;23.380;2022-09-17T08:28:45;10.27;;;2.60;;
8279;SDS011;8335;42.646;23.380;2022-09-17T08:31:13;9.57;;;2.67;;
8279;SDS011;8335;42.646;23.380;2022-09-17T08:33:41;9.20;;;2.80;;
8279;SDS011;8335;42.646;23.380;2022-09-17T08:36:09;7.53;;;2.72;;
8279;SDS011;8335;42.646;23.380;2022-09-17T08:38:38;6.57;;;2.45;;
8279;SDS011;8335;42.646;23.380;2022-09-17T08:41:09;8.05;;;2.60;;
8279;SDS011;8335;42.646;23.380;2022-09-17T08:43:57;11.10;;;4.97;;
8279;SDS011;8335;42.646;23.380;2022-09-17T08:46:37;6.30;;;2.40;;
8279;SDS011;8335;42.646;23.380;2022-09-17T08:49:11;9.88;;;2.80;;
8279;SDS011;8335;42.646;23.380;2022-09-17T08:51:43;6.90;;;2.70;;
8279;SDS011;8335;42.646;23.380;2022-09-17T08:54:20;7.82;;;2.92;;
8279;SDS011;8335;42.646;23.380;2022-09-17T08:56:59;7.65;;;2.47;;
8279;SDS011;8335;42.646;23.380;2022-09-17T08:59:39;7.60;;;2.70;;
8279;SDS011;8335;42.646;23.380;2022-09-17T09:02:13;4.10;;;2.50;;
8279;SDS011;8335;42.646;23.380;2022-09-17T09:04:57;7.80;;;2.30;;
8279;SDS011;8335;42.646;23.380;2022-09-17T09:07:29;6.85;;;2.20;;
8279;SDS011;8335;42.646;23.380;2022-09-17T09:10:06;5.85;;;2.30;;
8279;SDS011;8335;42.646;23.380;2022-09-17T09:12:39;9.02;;;2.55;;
8279;SDS011;8335;42.646;23.380;2022-09-17T09:15:14;7.03;;;2.83;;
8279;SDS011;8335;42.646;23.380;2022-09-17T09:17:49;11.45;;;3.00;;
8279;SDS011;8335;42.646;23.380;2022-09-17T09:20:19;11.95;;;2.92;;
8279;SDS011;8335;42.646;23.380;2022-09-17T09:22:54;6.85;;;2.67;;
8279;SDS011;8335;42.646;23.380;2022-09-17T09:25:21;8.02;;;2.50;;
8279;SDS011;8335;42.646;23.380;2022-09-17T09:28:02;6.93;;;2.22;;
8279;SDS011;8335;42.646;23.380;2022-09-17T09:30:41;8.15;;;3.00;;
8279;SDS011;8335;42.646;23.380;2022-09-17T09:33:20;5.40;;;3.03;;
8279;SDS011;8335;42.646;23.380;2022-09-17T09:35:52;8.80;;;2.72;;
8279;SDS011;8335;42.646;23.380;2022-09-17T09:38:20;9.43;;;2.90;;
8279;SDS011;8335;42.646;23.380;2022-09-17T09:40:56;6.28;;;2.80;;
8279;SDS011;8335;42.646;23.380;2022-09-17T09:43:30;5.95;;;3.00;;
8279;SDS011;8335;42.646;23.380;2022-09-17T09:46:12;9.77;;;4.93;;
8279;SDS011;8335;42.646;23.380;2022-09-17T09:48:55;7.68;;;3.40;;
8279;SDS011;8335;42.646;23.380;2022-09-17T09:51:37;6.68;;;3.33;;
8279;SDS011;8335;42.646;23.380;2022-09-17T09:54:18;6.97;;;3.05;;
8279;SDS011;8335;42.646;23.380;2022-09-17T09:57:00;6.50;;;2.90;;
8279;SDS011;8335;42.646;23.380;2022-09-17T09:59:31;6.85;;;3.25;;
8279;SDS011;8335;42.646;23.380;2022-09-17T10:02:01;7.57;;;3.30;;
8279;SDS011;8335;42.646;23.380;2022-09-17T10:04:28;7.82;;;3.10;;
8279;SDS011;8335;42.646;23.380;2022-09-17T10:06:59;10.75;;;4.03;;
8279;SDS011;8335;42.646;23.380;2022-09-17T10:09:28;8.38;;;2.80;;
8279;SDS011;8335;42.646;23.380;2022-09-17T10:12:00;5.72;;;3.17;;
8279;SDS011;8335;42.646;23.380;2022-09-17T10:14:30;13.50;;;4.15;;
8279;SDS011;8335;42.646;23.380;2022-09-17T10:17:13;5.32;;;3.67;;
8279;SDS011;8335;42.646;23.380;2022-09-17T10:19:42;5.30;;;4.00;;
8279;SDS011;8335;42.646;23.380;2022-09-17T10:22:22;7.10;;;4.05;;
8279;SDS011;8335;42.646;23.380;2022-09-17T10:24:51;7.97;;;4.80;;
8279;SDS011;8335;42.646;23.380;2022-09-17T10:27:19;18.95;;;11.90;;
8279;SDS011;8335;42.646;23.380;2022-09-17T10:29:49;13.50;;;8.70;;
8279;SDS011;8335;42.646;23.380;2022-09-17T10:32:21;12.98;;;8.70;;
8279;SDS011;8335;42.646;23.380;2022-09-17T10:34:58;9.32;;;5.38;;
8279;SDS011;8335;42.646;23.380;2022-09-17T10:37:40;10.88;;;5.28;;
8279;SDS011;8335;42.646;23.380;2022-09-17T10:40:23;11.48;;;4.55;;
8279;SDS011;8335;42.646;23.380;2022-09-17T10:45:44;7.05;;;4.00;;
8279;SDS011;8335;42.646;23.380;2022-09-17T10:48:21;8.40;;;3.40;;
8279;SDS011;8335;42.646;23.380;2022-09-17T10:50:49;9.70;;;3.47;;
8279;SDS011;8335;42.646;23.380;2022-09-17T10:53:19;7.70;;;3.75;;
8279;SDS011;8335;42.646;23.380;2022-09-17T10:55:48;6.63;;;2.72;;
8279;SDS011;8335;42.646;23.380;2022-09-17T10:58:23;7.43;;;2.92;;
8279;SDS011;8335;42.646;23.380;2022-09-17T11:01:01;8.38;;;3.05;;
8279;SDS011;8335;42.646;23.380;2022-09-17T11:03:52;32.33;;;10.00;;
8279;SDS011;8335;42.646;23.380;2022-09-17T11:06:43;6.47;;;2.78;;
8279;SDS011;8335;42.646;23.380;2022-09-17T11:09:38;6.63;;;2.95;;
8279;SDS011;8335;42.646;23.380;2022-09-17T11:12:16;5.30;;;3.22;;
8279;SDS011;8335;42.646;23.380;2022-09-17T11:14:50;6.75;;;2.83;;
8279;SDS011;8335;42.646;23.380;2022-09-17T11:17:35;5.45;;;3.15;;
8279;SDS011;8335;42.646;23.380;2022-09-17T11:20:23;7.15;;;3.55;;
8279;SDS011;8335;42.646;23.380;2022-09-17T11:23:08;6.90;;;3.72;;
8279;SDS011;8335;42.646;23.380;2022-09-17T11:25:49;7.60;;;2.85;;
8279;SDS011;8335;42.646;23.380;2022-09-17T11:28:24;4.22;;;2.60;;
8279;SDS011;8335;42.646;23.380;2022-09-17T11:31:16;4.60;;;2.10;;
8279;SDS011;8335;42.646;23.380;2022-09-17T11:33:57;4.82;;;2.40;;
8279;SDS011;8335;42.646;23.380;2022-09-17T11:36:42;5.80;;;3.30;;
8279;SDS011;8335;42.646;23.380;2022-09-17T11:39:15;10.02;;;3.80;;
8279;SDS011;8335;42.646;23.380;2022-09-17T11:41:44;10.13;;;4.13;;
8279;SDS011;8335;42.646;23.380;2022-09-17T11:44:19;5.28;;;3.50;;
8279;SDS011;8335;42.646;23.380;2022-09-17T11:46:51;6.85;;;3.90;;
8279;SDS011;8335;42.646;23.380;2022-09-17T11:49:24;4.93;;;2.75;;
8279;SDS011;8335;42.646;23.380;2022-09-17T11:52:02;5.43;;;2.67;;
8279;SDS011;8335;42.646;23.380;2022-09-17T11:54:34;8.00;;;3.50;;
8279;SDS011;8335;42.646;23.380;2022-09-17T11:57:08;5.13;;;3.25;;
8279;SDS011;8335;42.646;23.380;2022-09-17T11:59:40;6.22;;;3.40;;
8279;SDS011;8335;42.646;23.380;2022-09-17T12:02:14;5.65;;;2.70;;
8279;SDS011;8335;42.646;23.380;2022-09-17T12:04:46;7.30;;;2.80;;
8279;SDS011;8335;42.646;23.380;2022-09-17T12:07:26;5.03;;;2.70;;
8279;SDS011;8335;42.646;23.380;2022-09-17T12:09:59;6.53;;;3.15;;
8279;SDS011;8335;42.646;23.380;2022-09-17T12:12:37;4.60;;;3.10;;
8279;SDS011;8335;42.646;23.380;2022-09-17T12:15:12;11.73;;;3.30;;
8279;SDS011;8335;42.646;23.380;2022-09-17T12:17:45;7.72;;;3.05;;
8279;SDS011;8335;42.646;23.380;2022-09-17T12:20:18;6.25;;;3.20;;
8279;SDS011;8335;42.646;23.380;2022-09-17T12:22:53;6.45;;;3.00;;
8279;SDS011;8335;42.646;23.380;2022-09-17T12:25:23;6.53;;;2.80;;
8279;SDS011;8335;42.646;23.380;2022-09-17T12:27:52;6.15;;;3.10;;
8279;SDS011;8335;42.646;23.380;2022-09-17T12:30:23;5.28;;;2.72;;
8279;SDS011;8335;42.646;23.380;2022-09-17T12:35:47;3.58;;;2.50;;
8279;SDS011;8335;42.646;23.380;2022-09-17T12:38:44;3.92;;;2.50;;
8279;SDS011;8335;42.646;23.380;2022-09-17T12:41:21;3.92;;;2.67;;
8279;SDS011;8335;42.646;23.380;2022-09-17T12:43:55;4.22;;;3.17;;
8279;SDS011;8335;42.646;23.380;2022-09-17T12:46:42;7.80;;;3.05;;
8279;SDS011;8335;42.646;23.380;2022-09-17T12:49:33;6.35;;;2.92;;
8279;SDS011;8335;42.646;23.380;2022-09-17T12:52:13;5.97;;;2.92;;
8279;SDS011;8335;42.646;23.380;2022-09-17T12:57:50;2.83;;;2.50;;
8279;SDS011;8335;42.646;23.380;2022-09-17T13:00:35;6.47;;;2.75;;
8279;SDS011;8335;42.646;23.380;2022-09-17T13:03:06;7.75;;;3.13;;
8279;SDS011;8335;42.646;23.380;2022-09-17T13:06:01;7.07;;;3.47;;
8279;SDS011;8335;42.646;23.380;2022-09-17T13:08:54;5.65;;;3.00;;
8279;SDS011;8335;42.646;23.380;2022-09-17T13:14:29;4.57;;;2.30;;
8279;SDS011;8335;42.646;23.380;2022-09-17T13:17:07;4.75;;;2.22;;
8279;SDS011;8335;42.646;23.380;2022-09-17T13:19:46;4.45;;;2.40;;
8279;SDS011;8335;42.646;23.380;2022-09-17T13:22:19;4.88;;;2.33;;
8279;SDS011;8335;42.646;23.380;2022-09-17T13:25:00;4.68;;;1.90;;
8279;SDS011;8335;42.646;23.380;2022-09-17T13:27:30;5.60;;;2.10;;
8279;SDS011;8335;42.646;23.380;2022-09-17T13:30:03;4.75;;;2.10;;
8279;SDS011;8335;42.646;23.380;2022-09-17T13:38:16;4.93;;;2.15;;
8279;SDS011;8335;42.646;23.380;2022-09-17T13:40:45;2.63;;;1.80;;
8279;SDS011;8335;42.646;23.380;2022-09-17T13:43:14;4.55;;;2.00;;
8279;SDS011;8335;42.646;23.380;2022-09-17T13:46:04;4.35;;;1.70;;
8279;SDS011;8335;42.646;23.380;2022-09-17T13:48:42;3.30;;;1.70;;
8279;SDS011;8335;42.646;23.380;2022-09-17T13:54:16;3.42;;;1.85;;
8279;SDS011;8335;42.646;23.380;2022-09-17T13:56:47;5.20;;;2.13;;
8279;SDS011;8335;42.646;23.380;2022-09-17T13:59:18;6.05;;;1.80;;
8279;SDS011;8335;42.646;23.380;2022-09-17T14:01:56;3.53;;;2.00;;
8279;SDS011;8335;42.646;23.380;2022-09-17T14:04:34;4.68;;;1.98;;
8279;SDS011;8335;42.646;23.380;2022-09-17T14:07:30;6.07;;;2.20;;
8279;SDS011;8335;42.646;23.380;2022-09-17T14:09:59;5.45;;;2.10;;
8279;SDS011;8335;42.646;23.380;2022-09-17T14:21:26;5.03;;;2.33;;
8279;SDS011;8335;42.646;23.380;2022-09-17T14:23:57;6.50;;;2.13;;
8279;SDS011;8335;42.646;23.380;2022-09-17T14:26:30;11.38;;;2.25;;
8279;SDS011;8335;42.646;23.380;2022-09-17T14:29:18;3.90;;;1.95;;
8279;SDS011;8335;42.646;23.380;2022-09-17T14:31:54;3.38;;;1.90;;
8279;SDS011;8335;42.646;23.380;2022-09-17T14:34:23;7.18;;;2.33;;
8279;SDS011;8335;42.646;23.380;2022-09-17T14:36:51;6.70;;;1.80;;
8279;SDS011;8335;42.646;23.380;2022-09-17T14:39:20;5.80;;;2.25;;
8279;SDS011;8335;42.646;23.380;2022-09-17T14:41:50;2.90;;;1.90;;
8279;SDS011;8335;42.646;23.380;2022-09-17T14:44:20;4.03;;;2.30;;
8279;SDS011;8335;42.646;23.380;2022-09-17T14:46:49;8.15;;;2.30;;
8279;SDS011;8335;42.646;23.380;2022-09-17T14:49:20;2.63;;;1.80;;
8279;SDS011;8335;42.646;23.380;2022-09-17T14:51:50;4.45;;;1.77;;
8279;SDS011;8335;42.646;23.380;2022-09-17T14:54:21;4.13;;;2.30;;
8279;SDS011;8335;42.646;23.380;2022-09-17T14:56:51;3.63;;;2.00;;
8279;SDS011;8335;42.646;23.380;2022-09-17T14:59:21;3.08;;;1.63;;
8279;SDS011;8335;42.646;23.380;2022-09-17T15:01:52;7.82;;;2.97;;
8279;SDS011;8335;42.646;23.380;2022-09-17T15:04:20;4.75;;;2.53;;
8279;SDS011;8335;42.646;23.380;2022-09-17T15:06:50;5.72;;;2.03;;
8279;SDS011;8335;42.646;23.380;2022-09-17T15:09:17;6.65;;;2.70;;
8279;SDS011;8335;42.646;23.380;2022-09-17T15:11:47;7.95;;;2.15;;
8279;SDS011;8335;42.646;23.380;2022-09-17T15:14:20;5.35;;;1.95;;
8279;SDS011;8335;42.646;23.380;2022-09-17T15:16:54;3.00;;;1.73;;
8279;SDS011;8335;42.646;23.380;2022-09-17T15:19:24;8.20;;;2.45;;
8279;SDS011;8335;42.646;23.380;2022-09-17T15:21:56;4.60;;;1.60;;
8279;SDS011;8335;42.646;23.380;2022-09-17T15:24:32;7.47;;;2.90;;
8279;SDS011;8335;42.646;23.380;2022-09-17T15:27:04;6.35;;;3.30;;
8279;SDS011;8335;42.646;23.380;2022-09-17T15:29:38;8.05;;;3.03;;
8279;SDS011;8335;42.646;23.380;2022-09-17T15:32:07;9.20;;;4.40;;
8279;SDS011;8335;42.646;23.380;2022-09-17T15:34:36;6.10;;;2.45;;
8279;SDS011;8335;42.646;23.380;2022-09-17T15:37:05;12.77;;;2.13;;
8279;SDS011;8335;42.646;23.380;2022-09-17T15:39:41;6.70;;;2.40;;
8279;SDS011;8335;42.646;23.380;2022-09-17T15:42:18;5.88;;;2.53;;
8279;SDS011;8335;42.646;23.380;2022-09-17T15:44:46;5.05;;;2.05;;
8279;SDS011;8335;42.646;23.380;2022-09-17T15:50:03;4.72;;;3.42;;
8279;SDS011;8335;42.646;23.380;2022-09-17T15:52:38;6.03;;;1.70;;
8279;SDS011;8335;42.646;23.380;2022-09-17T15:57:55;4.88;;;2.00;;
8279;SDS011;8335;42.646;23.380;2022-09-17T16:00:23;4.28;;;2.05;;
8279;SDS011;8335;42.646;23.380;2022-09-17T16:02:50;3.88;;;2.05;;